Etusivu
METAR-TAF:

METAR-TAF

Lentoasemat :

Mont-de-Marsan, Ranska

Leveyspiiri: 43-55N, Pituuspiiri: 000-30W, korkeus merenpinnasta: 62 m

Tämänhetkinen sää

Tämä raportti tehtiin 22 minuuttia sitten, kello 09.30 UTC
Tuuli 3 kn idästä
Lämpötila 1°C
Kosteus 93%
Ilmanpaine 1030 hPa
Näkyvyys 10 km tai enemmän
ei pilviä alle 1500 m:ssä eikä cumulonimbus-pilviä

METAR: LFBM 180930Z AUTO 08003KT CAVOK 01/00 Q1030 NOSIG

Aika: 10:52 (09:52 UTC)

Sääennuste

Tämä raportti tehtiin 1 tunti ja 52 minuuttia sitten, kello 08.00 UTC
Ennuste voimassa 18. päivästä klo 09 UTC - 19. päivään klo 09 UTC
Tuuli 5 kn idästä
Näkyvyys 10 km tai enemmän
ei pilviä alle 1500 m:ssä eikä cumulonimbus-pilviä
Tulossa
18. päivästä klo 21 UTC - 18. päivään klo 23 UTC
Näkyvyys: 3000 m
utua
Todennäköisyys 30% :
Ajoittain
18. päivästä klo 23 UTC - 19. päivään klo 09 UTC
Näkyvyys: 0800 m
sumua

TAF: LFBM 180800Z 1809/1909 09005KT CAVOK BECMG 1821/1823 3000 BR PROB30 TEMPO 1823/1909 0800 FG

Säähavainnot ja -ennusteet yli 4000 lentoasemalta (METAR- ja TAF-raportit).

Käytössä olevat sääasemat on merkitty karttaan keltaisilla ja punaisilla pisteillä.

Aseta hiiri pisteen päälle nähdäksesi sääaseman nimen.

Klikkaa sitten nähdäksesi säähavainnot ja -ennusteet.

Kartan vaihtaminen: klikkaa mustalla rastilla varustettuja vihreitä pisteitä, niin voit zoomata sisään; viivalla varustettua vihreää pistettä, niin voit zoomata ulos tai vihreitä nuolia, niin pääset viereisille kartoille.


METAR-TAF: